sensor_id;sensor_type;location;lat;lon;timestamp;pressure;altitude;pressure_sealevel;temperature;humidity
78857;BME280;68207;50.078;19.936;2023-03-20T00:01:48;98993.82;;;7.63;55.57
78857;BME280;68207;50.078;19.936;2023-03-20T00:04:14;98995.02;;;7.63;55.82
78857;BME280;68207;50.078;19.936;2023-03-20T00:06:39;98997.02;;;7.62;55.96
78857;BME280;68207;50.078;19.936;2023-03-20T00:09:04;98995.67;;;7.57;56.05
78857;BME280;68207;50.078;19.936;2023-03-20T00:11:32;98994.58;;;7.55;56.14
78857;BME280;68207;50.078;19.936;2023-03-20T00:14:03;98992.50;;;7.50;56.04
78857;BME280;68207;50.078;19.936;2023-03-20T00:16:34;98997.46;;;7.46;56.02
78857;BME280;68207;50.078;19.936;2023-03-20T00:19:00;98998.03;;;7.42;56.38
78857;BME280;68207;50.078;19.936;2023-03-20T00:21:26;98997.34;;;7.39;56.21
78857;BME280;68207;50.078;19.936;2023-03-20T00:23:53;98998.38;;;7.39;56.62
78857;BME280;68207;50.078;19.936;2023-03-20T00:26:19;98996.84;;;7.39;56.19
78857;BME280;68207;50.078;19.936;2023-03-20T00:28:48;98994.55;;;7.37;56.63
78857;BME280;68207;50.078;19.936;2023-03-20T00:33:50;98992.48;;;7.31;56.62
78857;BME280;68207;50.078;19.936;2023-03-20T00:36:15;98993.22;;;7.29;56.72
78857;BME280;68207;50.078;19.936;2023-03-20T00:38:40;98993.91;;;7.25;57.10
78857;BME280;68207;50.078;19.936;2023-03-20T00:43:45;98981.78;;;7.18;57.16
78857;BME280;68207;50.078;19.936;2023-03-20T00:46:12;98984.61;;;7.18;57.34
78857;BME280;68207;50.078;19.936;2023-03-20T00:48:39;98984.13;;;7.16;56.97
78857;BME280;68207;50.078;19.936;2023-03-20T00:51:06;98980.59;;;7.15;56.93
78857;BME280;68207;50.078;19.936;2023-03-20T00:53:32;98979.07;;;7.14;57.42
78857;BME280;68207;50.078;19.936;2023-03-20T00:55:58;98982.72;;;7.11;57.25
78857;BME280;68207;50.078;19.936;2023-03-20T00:58:23;98986.95;;;7.09;57.55
78857;BME280;68207;50.078;19.936;2023-03-20T01:00:49;98985.11;;;7.06;57.35
78857;BME280;68207;50.078;19.936;2023-03-20T01:03:20;98985.21;;;7.05;57.59
78857;BME280;68207;50.078;19.936;2023-03-20T01:05:47;98982.48;;;7.02;57.39
78857;BME280;68207;50.078;19.936;2023-03-20T01:08:21;98988.46;;;7.02;57.15
78857;BME280;68207;50.078;19.936;2023-03-20T01:10:50;98983.69;;;7.01;57.37
78857;BME280;68207;50.078;19.936;2023-03-20T01:13:29;98983.16;;;7.00;57.23
78857;BME280;68207;50.078;19.936;2023-03-20T01:15:56;98979.11;;;7.01;57.30
78857;BME280;68207;50.078;19.936;2023-03-20T01:18:24;98980.83;;;7.01;57.29
78857;BME280;68207;50.078;19.936;2023-03-20T01:20:50;98982.30;;;7.01;57.55
78857;BME280;68207;50.078;19.936;2023-03-20T01:23:18;98984.77;;;7.01;57.61
78857;BME280;68207;50.078;19.936;2023-03-20T01:25:44;98984.55;;;7.01;57.65
78857;BME280;68207;50.078;19.936;2023-03-20T01:28:15;98983.80;;;7.01;57.82
78857;BME280;68207;50.078;19.936;2023-03-20T01:30:41;98979.05;;;7.01;57.55
78857;BME280;68207;50.078;19.936;2023-03-20T01:33:16;98981.41;;;7.01;57.63
78857;BME280;68207;50.078;19.936;2023-03-20T01:35:42;98981.83;;;6.98;57.74
78857;BME280;68207;50.078;19.936;2023-03-20T01:38:16;98978.54;;;6.94;57.85
78857;BME280;68207;50.078;19.936;2023-03-20T01:40:46;98979.11;;;6.92;58.07
78857;BME280;68207;50.078;19.936;2023-03-20T01:43:15;98976.73;;;6.89;58.51
78857;BME280;68207;50.078;19.936;2023-03-20T01:45:56;98977.52;;;6.88;58.13
78857;BME280;68207;50.078;19.936;2023-03-20T01:48:25;98978.27;;;6.88;58.21
78857;BME280;68207;50.078;19.936;2023-03-20T01:50:52;98979.52;;;6.88;58.33
78857;BME280;68207;50.078;19.936;2023-03-20T01:53:22;98977.45;;;6.85;58.37
78857;BME280;68207;50.078;19.936;2023-03-20T01:55:50;98978.70;;;6.82;58.73
78857;BME280;68207;50.078;19.936;2023-03-20T01:58:25;98976.98;;;6.78;59.09
78857;BME280;68207;50.078;19.936;2023-03-20T02:00:53;98980.70;;;6.76;58.87
78857;BME280;68207;50.078;19.936;2023-03-20T02:03:19;98980.19;;;6.74;59.17
78857;BME280;68207;50.078;19.936;2023-03-20T02:05:45;98978.89;;;6.73;59.22
78857;BME280;68207;50.078;19.936;2023-03-20T02:08:18;98979.36;;;6.73;58.94
78857;BME280;68207;50.078;19.936;2023-03-20T02:10:48;98979.95;;;6.73;58.90
78857;BME280;68207;50.078;19.936;2023-03-20T02:13:13;98980.53;;;6.72;59.28
78857;BME280;68207;50.078;19.936;2023-03-20T02:18:23;98978.56;;;6.71;59.57
78857;BME280;68207;50.078;19.936;2023-03-20T02:21:12;98977.68;;;6.71;59.42
78857;BME280;68207;50.078;19.936;2023-03-20T02:40:27;98979.48;;;6.67;59.90
78857;BME280;68207;50.078;19.936;2023-03-20T02:46:01;98979.89;;;6.60;60.27
78857;BME280;68207;50.078;19.936;2023-03-20T02:48:54;98977.98;;;6.56;60.41
78857;BME280;68207;50.078;19.936;2023-03-20T02:51:34;98977.19;;;6.53;60.48
78857;BME280;68207;50.078;19.936;2023-03-20T02:54:12;98969.46;;;6.52;60.79
78857;BME280;68207;50.078;19.936;2023-03-20T02:56:56;98973.70;;;6.53;60.66
78857;BME280;68207;50.078;19.936;2023-03-20T03:02:15;98969.35;;;6.53;60.65
78857;BME280;68207;50.078;19.936;2023-03-20T03:04:50;98964.67;;;6.54;60.14
78857;BME280;68207;50.078;19.936;2023-03-20T03:07:18;98964.92;;;6.53;60.74
78857;BME280;68207;50.078;19.936;2023-03-20T03:09:50;98966.13;;;6.54;60.40
78857;BME280;68207;50.078;19.936;2023-03-20T03:12:20;98960.36;;;6.53;60.91
78857;BME280;68207;50.078;19.936;2023-03-20T03:14:51;98963.04;;;6.55;60.39
78857;BME280;68207;50.078;19.936;2023-03-20T03:17:19;98958.46;;;6.55;60.56
78857;BME280;68207;50.078;19.936;2023-03-20T03:19:51;98959.83;;;6.55;60.80
78857;BME280;68207;50.078;19.936;2023-03-20T03:22:18;98960.64;;;6.56;60.65
78857;BME280;68207;50.078;19.936;2023-03-20T03:24:48;98956.63;;;6.57;60.63
78857;BME280;68207;50.078;19.936;2023-03-20T03:27:21;98956.31;;;6.59;60.73
78857;BME280;68207;50.078;19.936;2023-03-20T03:29:55;98957.70;;;6.59;60.49
78857;BME280;68207;50.078;19.936;2023-03-20T03:32:48;98958.52;;;6.60;60.72
78857;BME280;68207;50.078;19.936;2023-03-20T03:35:17;98957.70;;;6.59;60.65
78857;BME280;68207;50.078;19.936;2023-03-20T03:40:29;98955.09;;;6.59;60.70
78857;BME280;68207;50.078;19.936;2023-03-20T03:43:09;98956.61;;;6.59;60.55
78857;BME280;68207;50.078;19.936;2023-03-20T03:45:45;98957.05;;;6.60;60.66
78857;BME280;68207;50.078;19.936;2023-03-20T03:48:17;98954.52;;;6.61;60.76
78857;BME280;68207;50.078;19.936;2023-03-20T03:50:49;98953.95;;;6.62;60.79
78857;BME280;68207;50.078;19.936;2023-03-20T03:53:22;98956.04;;;6.60;61.36
78857;BME280;68207;50.078;19.936;2023-03-20T03:55:59;98951.87;;;6.56;61.24
78857;BME280;68207;50.078;19.936;2023-03-20T03:58:29;98949.73;;;6.51;61.48
78857;BME280;68207;50.078;19.936;2023-03-20T04:00:57;98950.42;;;6.45;61.72
78857;BME280;68207;50.078;19.936;2023-03-20T04:03:28;98952.22;;;6.41;61.63
78857;BME280;68207;50.078;19.936;2023-03-20T04:05:56;98952.93;;;6.38;61.74
78857;BME280;68207;50.078;19.936;2023-03-20T04:08:23;98956.02;;;6.35;62.13
78857;BME280;68207;50.078;19.936;2023-03-20T04:10:48;98950.40;;;6.33;61.70
78857;BME280;68207;50.078;19.936;2023-03-20T04:13:14;98949.69;;;6.33;61.82
78857;BME280;68207;50.078;19.936;2023-03-20T04:15:40;98953.25;;;6.32;61.60
78857;BME280;68207;50.078;19.936;2023-03-20T04:18:06;98960.42;;;6.33;61.74
78857;BME280;68207;50.078;19.936;2023-03-20T04:20:32;98960.99;;;6.33;61.85
78857;BME280;68207;50.078;19.936;2023-03-20T04:22:58;98963.34;;;6.33;61.79
78857;BME280;68207;50.078;19.936;2023-03-20T04:25:24;98961.46;;;6.35;61.44
78857;BME280;68207;50.078;19.936;2023-03-20T04:27:50;98960.86;;;6.36;61.44
78857;BME280;68207;50.078;19.936;2023-03-20T04:30:16;98956.38;;;6.35;61.59
78857;BME280;68207;50.078;19.936;2023-03-20T04:32:42;98957.61;;;6.33;61.65
78857;BME280;68207;50.078;19.936;2023-03-20T04:35:08;98956.33;;;6.33;61.29
78857;BME280;68207;50.078;19.936;2023-03-20T04:37:33;98956.14;;;6.32;61.58
78857;BME280;68207;50.078;19.936;2023-03-20T04:39:58;98958.00;;;6.31;61.46
78857;BME280;68207;50.078;19.936;2023-03-20T04:42:24;98960.02;;;6.32;61.56
78857;BME280;68207;50.078;19.936;2023-03-20T04:44:49;98962.69;;;6.31;61.56
78857;BME280;68207;50.078;19.936;2023-03-20T04:47:15;98962.19;;;6.31;61.96
78857;BME280;68207;50.078;19.936;2023-03-20T04:49:41;98958.09;;;6.30;61.91
78857;BME280;68207;50.078;19.936;2023-03-20T04:52:06;98960.92;;;6.30;61.83
78857;BME280;68207;50.078;19.936;2023-03-20T04:54:31;98963.92;;;6.31;61.87
78857;BME280;68207;50.078;19.936;2023-03-20T04:56:57;98966.77;;;6.33;61.76
78857;BME280;68207;50.078;19.936;2023-03-20T04:59:22;98971.63;;;6.35;61.50
78857;BME280;68207;50.078;19.936;2023-03-20T05:01:47;98966.81;;;6.38;61.45
78857;BME280;68207;50.078;19.936;2023-03-20T05:04:13;98964.91;;;6.43;61.51
78857;BME280;68207;50.078;19.936;2023-03-20T05:06:38;98964.38;;;6.50;61.61
78857;BME280;68207;50.078;19.936;2023-03-20T05:09:04;98968.86;;;6.56;61.62
78857;BME280;68207;50.078;19.936;2023-03-20T05:11:30;98968.39;;;6.59;61.29
78857;BME280;68207;50.078;19.936;2023-03-20T05:13:55;98971.05;;;6.61;61.02
78857;BME280;68207;50.078;19.936;2023-03-20T05:16:21;98972.36;;;6.62;61.00
78857;BME280;68207;50.078;19.936;2023-03-20T05:18:49;98975.83;;;6.66;60.90
78857;BME280;68207;50.078;19.936;2023-03-20T05:21:15;98975.43;;;6.67;60.78
78857;BME280;68207;50.078;19.936;2023-03-20T05:23:40;98980.00;;;6.70;60.60
78857;BME280;68207;50.078;19.936;2023-03-20T05:26:06;98976.56;;;6.73;60.53
78857;BME280;68207;50.078;19.936;2023-03-20T05:28:31;98979.92;;;6.77;60.43
78857;BME280;68207;50.078;19.936;2023-03-20T05:30:57;98980.89;;;6.79;60.38
78857;BME280;68207;50.078;19.936;2023-03-20T05:33:22;98984.86;;;6.82;60.49
78857;BME280;68207;50.078;19.936;2023-03-20T05:35:48;98985.58;;;6.85;60.23
78857;BME280;68207;50.078;19.936;2023-03-20T05:38:13;98984.80;;;6.88;60.41
78857;BME280;68207;50.078;19.936;2023-03-20T05:40:38;98984.45;;;6.90;60.19
78857;BME280;68207;50.078;19.936;2023-03-20T05:43:06;98986.59;;;6.93;60.48
78857;BME280;68207;50.078;19.936;2023-03-20T05:45:31;98988.52;;;6.96;60.17
78857;BME280;68207;50.078;19.936;2023-03-20T05:47:56;98986.88;;;6.98;60.41
78857;BME280;68207;50.078;19.936;2023-03-20T05:50:22;98987.83;;;6.98;60.20
78857;BME280;68207;50.078;19.936;2023-03-20T05:52:47;98986.64;;;6.97;60.12
78857;BME280;68207;50.078;19.936;2023-03-20T05:55:13;98989.65;;;7.01;59.93
78857;BME280;68207;50.078;19.936;2023-03-20T05:57:39;98991.43;;;7.04;60.18
78857;BME280;68207;50.078;19.936;2023-03-20T06:00:05;98994.84;;;7.07;59.82
78857;BME280;68207;50.078;19.936;2023-03-20T06:02:31;98992.72;;;7.09;60.03
78857;BME280;68207;50.078;19.936;2023-03-20T06:04:56;99000.42;;;7.11;60.04
78857;BME280;68207;50.078;19.936;2023-03-20T06:07:22;98994.77;;;7.13;59.62
78857;BME280;68207;50.078;19.936;2023-03-20T06:09:47;98992.03;;;7.16;59.74
78857;BME280;68207;50.078;19.936;2023-03-20T06:12:13;98992.86;;;7.18;59.62
78857;BME280;68207;50.078;19.936;2023-03-20T06:14:38;98997.33;;;7.19;59.32
78857;BME280;68207;50.078;19.936;2023-03-20T06:17:03;98995.84;;;7.22;59.30
78857;BME280;68207;50.078;19.936;2023-03-20T06:19:29;98993.02;;;7.24;59.14
78857;BME280;68207;50.078;19.936;2023-03-20T06:21:54;98994.40;;;7.28;59.34
78857;BME280;68207;50.078;19.936;2023-03-20T06:24:20;98995.81;;;7.34;58.89
78857;BME280;68207;50.078;19.936;2023-03-20T06:26:45;98998.80;;;7.45;58.80
78857;BME280;68207;50.078;19.936;2023-03-20T06:29:11;99004.21;;;7.56;58.61
78857;BME280;68207;50.078;19.936;2023-03-20T06:31:36;99006.11;;;7.67;58.07
78857;BME280;68207;50.078;19.936;2023-03-20T06:34:02;99005.17;;;7.80;58.05
78857;BME280;68207;50.078;19.936;2023-03-20T06:36:27;99007.61;;;7.94;57.81
78857;BME280;68207;50.078;19.936;2023-03-20T06:38:54;99005.83;;;8.08;57.67
78857;BME280;68207;50.078;19.936;2023-03-20T06:41:20;99007.25;;;8.28;57.43
78857;BME280;68207;50.078;19.936;2023-03-20T06:43:46;99011.13;;;8.50;56.89
78857;BME280;68207;50.078;19.936;2023-03-20T06:46:11;99007.86;;;8.64;56.44
78857;BME280;68207;50.078;19.936;2023-03-20T06:48:36;99005.35;;;8.81;56.41
78857;BME280;68207;50.078;19.936;2023-03-20T06:51:02;99005.27;;;8.97;55.90
78857;BME280;68207;50.078;19.936;2023-03-20T06:53:27;99009.81;;;9.14;55.58
78857;BME280;68207;50.078;19.936;2023-03-20T06:55:53;99004.98;;;9.31;55.21
78857;BME280;68207;50.078;19.936;2023-03-20T06:58:19;99010.01;;;9.51;54.62
78857;BME280;68207;50.078;19.936;2023-03-20T07:00:45;99014.64;;;9.67;54.01
78857;BME280;68207;50.078;19.936;2023-03-20T07:03:10;99017.52;;;9.84;53.67
78857;BME280;68207;50.078;19.936;2023-03-20T07:05:37;99015.94;;;10.05;53.17
78857;BME280;68207;50.078;19.936;2023-03-20T07:08:03;99014.02;;;10.23;52.77
78857;BME280;68207;50.078;19.936;2023-03-20T07:10:28;99018.39;;;10.38;51.99
78857;BME280;68207;50.078;19.936;2023-03-20T07:12:54;99018.09;;;10.44;51.01
78857;BME280;68207;50.078;19.936;2023-03-20T07:15:20;99015.77;;;10.44;51.32
78857;BME280;68207;50.078;19.936;2023-03-20T07:17:46;99020.77;;;10.44;50.48
78857;BME280;68207;50.078;19.936;2023-03-20T07:20:12;99018.73;;;10.49;50.88
78857;BME280;68207;50.078;19.936;2023-03-20T07:22:38;99017.23;;;10.61;50.12
78857;BME280;68207;50.078;19.936;2023-03-20T07:25:06;99014.05;;;10.69;50.09
78857;BME280;68207;50.078;19.936;2023-03-20T07:27:32;99010.72;;;10.73;50.23
78857;BME280;68207;50.078;19.936;2023-03-20T07:29:57;99009.01;;;10.86;50.00
78857;BME280;68207;50.078;19.936;2023-03-20T07:32:23;99014.68;;;11.11;49.66
78857;BME280;68207;50.078;19.936;2023-03-20T07:34:48;99013.20;;;11.42;49.32
78857;BME280;68207;50.078;19.936;2023-03-20T07:37:14;99010.84;;;11.78;49.06
78857;BME280;68207;50.078;19.936;2023-03-20T07:39:39;99009.86;;;12.08;48.17
78857;BME280;68207;50.078;19.936;2023-03-20T07:42:05;99007.11;;;12.32;47.18
78857;BME280;68207;50.078;19.936;2023-03-20T07:44:30;99010.29;;;12.48;46.60
78857;BME280;68207;50.078;19.936;2023-03-20T07:46:56;99014.98;;;12.62;46.40
78857;BME280;68207;50.078;19.936;2023-03-20T07:49:21;99017.73;;;12.72;46.06
78857;BME280;68207;50.078;19.936;2023-03-20T07:51:47;99025.28;;;12.71;45.77
78857;BME280;68207;50.078;19.936;2023-03-20T07:54:13;99030.61;;;12.65;45.60
78857;BME280;68207;50.078;19.936;2023-03-20T07:56:39;99028.31;;;12.56;45.73
78857;BME280;68207;50.078;19.936;2023-03-20T07:59:04;99030.67;;;12.50;46.03
78857;BME280;68207;50.078;19.936;2023-03-20T08:01:30;99030.36;;;12.45;46.02
78857;BME280;68207;50.078;19.936;2023-03-20T08:03:55;99026.27;;;12.45;46.10
78857;BME280;68207;50.078;19.936;2023-03-20T08:06:20;99027.20;;;12.39;46.19
78857;BME280;68207;50.078;19.936;2023-03-20T08:08:46;99028.64;;;12.25;46.25
78857;BME280;68207;50.078;19.936;2023-03-20T08:11:12;99031.89;;;12.11;46.57
78857;BME280;68207;50.078;19.936;2023-03-20T08:13:37;99037.45;;;11.99;46.98
78857;BME280;68207;50.078;19.936;2023-03-20T08:16:03;99035.15;;;11.86;47.03
78857;BME280;68207;50.078;19.936;2023-03-20T08:18:28;99035.87;;;11.76;47.21
78857;BME280;68207;50.078;19.936;2023-03-20T08:20:54;99032.63;;;11.72;47.46
78857;BME280;68207;50.078;19.936;2023-03-20T08:23:20;99028.27;;;11.74;47.70
78857;BME280;68207;50.078;19.936;2023-03-20T08:25:47;99027.00;;;11.85;47.74
78857;BME280;68207;50.078;19.936;2023-03-20T08:28:13;99030.64;;;12.00;47.89
78857;BME280;68207;50.078;19.936;2023-03-20T08:30:38;99029.00;;;12.12;47.61
78857;BME280;68207;50.078;19.936;2023-03-20T08:33:03;99025.12;;;12.28;47.64
78857;BME280;68207;50.078;19.936;2023-03-20T08:35:29;99026.95;;;12.44;47.37
78857;BME280;68207;50.078;19.936;2023-03-20T08:37:54;99031.80;;;12.62;47.08
78857;BME280;68207;50.078;19.936;2023-03-20T08:40:19;99029.70;;;12.83;46.98
78857;BME280;68207;50.078;19.936;2023-03-20T08:42:45;99029.91;;;13.06;46.74
78857;BME280;68207;50.078;19.936;2023-03-20T08:45:11;99026.19;;;13.23;46.63
78857;BME280;68207;50.078;19.936;2023-03-20T08:47:36;99024.58;;;13.32;46.55
78857;BME280;68207;50.078;19.936;2023-03-20T08:50:02;99028.56;;;13.37;46.75
78857;BME280;68207;50.078;19.936;2023-03-20T08:52:27;99032.67;;;13.43;46.72
78857;BME280;68207;50.078;19.936;2023-03-20T08:54:53;99027.81;;;13.43;46.89
78857;BME280;68207;50.078;19.936;2023-03-20T08:57:18;99030.16;;;13.46;46.84
78857;BME280;68207;50.078;19.936;2023-03-20T08:59:43;99031.66;;;13.52;46.92
78857;BME280;68207;50.078;19.936;2023-03-20T09:02:10;99031.60;;;13.66;47.11
78857;BME280;68207;50.078;19.936;2023-03-20T09:04:36;99022.05;;;13.82;47.05
78857;BME280;68207;50.078;19.936;2023-03-20T09:07:01;99022.41;;;14.03;46.91
78857;BME280;68207;50.078;19.936;2023-03-20T09:09:27;99023.54;;;14.32;46.58
78857;BME280;68207;50.078;19.936;2023-03-20T09:11:54;99018.77;;;14.64;46.00
78857;BME280;68207;50.078;19.936;2023-03-20T09:14:21;99021.80;;;14.95;45.69
78857;BME280;68207;50.078;19.936;2023-03-20T09:16:46;99025.59;;;15.27;45.44
78857;BME280;68207;50.078;19.936;2023-03-20T09:19:12;99025.23;;;15.58;45.28
78857;BME280;68207;50.078;19.936;2023-03-20T09:21:37;99021.96;;;15.92;44.75
78857;BME280;68207;50.078;19.936;2023-03-20T09:24:02;99022.58;;;16.16;44.13
78857;BME280;68207;50.078;19.936;2023-03-20T09:26:28;99020.40;;;16.31;43.65
78857;BME280;68207;50.078;19.936;2023-03-20T09:28:53;99022.27;;;16.42;43.23
78857;BME280;68207;50.078;19.936;2023-03-20T09:31:18;99020.39;;;16.59;43.02
78857;BME280;68207;50.078;19.936;2023-03-20T09:33:44;99018.02;;;16.74;42.46
78857;BME280;68207;50.078;19.936;2023-03-20T09:36:09;99022.60;;;16.82;42.23
78857;BME280;68207;50.078;19.936;2023-03-20T09:38:36;99024.32;;;16.72;41.65
78857;BME280;68207;50.078;19.936;2023-03-20T09:41:02;99024.42;;;16.65;42.47
78857;BME280;68207;50.078;19.936;2023-03-20T09:52:03;99036.04;;;16.13;43.61
78857;BME280;68207;50.078;19.936;2023-03-20T09:54:39;99038.73;;;16.14;43.74
78857;BME280;68207;50.078;19.936;2023-03-20T09:57:16;99038.22;;;16.10;44.04
78857;BME280;68207;50.078;19.936;2023-03-20T09:59:43;99046.75;;;16.04;43.84
78857;BME280;68207;50.078;19.936;2023-03-20T10:02:24;99045.80;;;15.80;44.33
78857;BME280;68207;50.078;19.936;2023-03-20T10:04:54;99045.06;;;15.65;44.75
78857;BME280;68207;50.078;19.936;2023-03-20T10:07:21;99045.92;;;15.74;44.98
78857;BME280;68207;50.078;19.936;2023-03-20T10:09:49;99044.05;;;15.80;45.16
78857;BME280;68207;50.078;19.936;2023-03-20T10:12:23;99035.65;;;15.79;45.51
78857;BME280;68207;50.078;19.936;2023-03-20T10:22:58;99031.55;;;15.65;45.81
78857;BME280;68207;50.078;19.936;2023-03-20T10:25:32;99032.64;;;15.54;45.87
78857;BME280;68207;50.078;19.936;2023-03-20T10:28:12;99029.78;;;15.61;46.08
78857;BME280;68207;50.078;19.936;2023-03-20T10:31:04;99031.91;;;15.72;45.77
78857;BME280;68207;50.078;19.936;2023-03-20T10:38:53;99031.05;;;15.59;46.51
78857;BME280;68207;50.078;19.936;2023-03-20T10:41:36;99025.60;;;15.70;46.59
78857;BME280;68207;50.078;19.936;2023-03-20T10:44:03;99023.29;;;15.98;46.34
78857;BME280;68207;50.078;19.936;2023-03-20T10:46:31;99027.20;;;16.22;46.03
78857;BME280;68207;50.078;19.936;2023-03-20T10:49:00;99020.98;;;16.34;45.66
78857;BME280;68207;50.078;19.936;2023-03-20T10:51:41;99020.34;;;16.34;45.67
78857;BME280;68207;50.078;19.936;2023-03-20T10:54:23;99016.41;;;16.32;45.76
78857;BME280;68207;50.078;19.936;2023-03-20T10:56:50;99013.00;;;16.25;46.01
78857;BME280;68207;50.078;19.936;2023-03-20T10:59:26;99014.23;;;16.15;46.22
78857;BME280;68207;50.078;19.936;2023-03-20T11:01:52;99013.83;;;16.05;46.55
78857;BME280;68207;50.078;19.936;2023-03-20T11:04:18;99009.00;;;16.01;46.81
78857;BME280;68207;50.078;19.936;2023-03-20T11:06:58;99009.23;;;15.96;46.90
78857;BME280;68207;50.078;19.936;2023-03-20T11:09:25;99015.26;;;15.86;47.33
78857;BME280;68207;50.078;19.936;2023-03-20T11:11:56;99010.48;;;15.77;47.46
78857;BME280;68207;50.078;19.936;2023-03-20T11:14:25;99014.79;;;15.69;47.83
78857;BME280;68207;50.078;19.936;2023-03-20T11:16:54;99015.45;;;15.52;48.40
78857;BME280;68207;50.078;19.936;2023-03-20T11:19:21;99009.78;;;15.34;49.11
78857;BME280;68207;50.078;19.936;2023-03-20T11:21:57;99005.70;;;15.18;49.38
78857;BME280;68207;50.078;19.936;2023-03-20T11:24:26;99000.05;;;15.08;49.65
78857;BME280;68207;50.078;19.936;2023-03-20T11:26:52;99002.45;;;15.03;50.33
78857;BME280;68207;50.078;19.936;2023-03-20T11:29:29;99001.30;;;14.94;50.61
78857;BME280;68207;50.078;19.936;2023-03-20T11:32:03;98996.61;;;14.90;50.90
78857;BME280;68207;50.078;19.936;2023-03-20T11:34:30;98993.56;;;14.88;51.15
78857;BME280;68207;50.078;19.936;2023-03-20T11:36:59;98995.02;;;14.89;51.35
78857;BME280;68207;50.078;19.936;2023-03-20T11:39:29;98992.95;;;14.86;51.64
78857;BME280;68207;50.078;19.936;2023-03-20T11:41:58;98997.85;;;14.85;51.80
78857;BME280;68207;50.078;19.936;2023-03-20T11:44:28;99002.32;;;14.90;52.09
78857;BME280;68207;50.078;19.936;2023-03-20T11:47:00;98998.44;;;14.89;52.28
78857;BME280;68207;50.078;19.936;2023-03-20T11:49:28;98994.02;;;14.91;52.25
78857;BME280;68207;50.078;19.936;2023-03-20T11:52:12;98995.22;;;15.04;52.34
78857;BME280;68207;50.078;19.936;2023-03-20T11:54:44;98999.35;;;15.20;52.23
78857;BME280;68207;50.078;19.936;2023-03-20T11:59:53;98984.52;;;15.20;52.40
78857;BME280;68207;50.078;19.936;2023-03-20T12:02:22;98981.71;;;15.17;52.34
78857;BME280;68207;50.078;19.936;2023-03-20T12:04:48;98983.95;;;15.26;52.36
78857;BME280;68207;50.078;19.936;2023-03-20T12:07:26;98976.97;;;15.41;52.18
78857;BME280;68207;50.078;19.936;2023-03-20T12:18:07;98970.88;;;16.05;51.23
78857;BME280;68207;50.078;19.936;2023-03-20T12:20:39;98975.86;;;16.07;50.98
78857;BME280;68207;50.078;19.936;2023-03-20T12:23:20;98969.27;;;15.99;50.41
78857;BME280;68207;50.078;19.936;2023-03-20T12:25:56;98966.77;;;16.03;50.26
78857;BME280;68207;50.078;19.936;2023-03-20T12:28:32;98959.11;;;16.14;50.11
78857;BME280;68207;50.078;19.936;2023-03-20T12:31:06;98963.29;;;16.28;49.83
78857;BME280;68207;50.078;19.936;2023-03-20T12:36:18;98962.30;;;16.48;49.46
78857;BME280;68207;50.078;19.936;2023-03-20T12:38:49;98961.83;;;16.62;49.42
78857;BME280;68207;50.078;19.936;2023-03-20T12:41:23;98958.77;;;16.77;49.14
78857;BME280;68207;50.078;19.936;2023-03-20T12:44:14;98960.77;;;16.94;48.62
78857;BME280;68207;50.078;19.936;2023-03-20T12:46:59;98954.05;;;17.03;48.16
78857;BME280;68207;50.078;19.936;2023-03-20T12:52:31;98946.69;;;17.56;47.08
78857;BME280;68207;50.078;19.936;2023-03-20T12:55:41;98946.38;;;17.82;46.50
78857;BME280;68207;50.078;19.936;2023-03-20T12:58:07;98943.02;;;18.06;45.95
78857;BME280;68207;50.078;19.936;2023-03-20T13:03:26;98941.22;;;18.40;45.16
78857;BME280;68207;50.078;19.936;2023-03-20T13:06:13;98944.70;;;18.47;44.63
78857;BME280;68207;50.078;19.936;2023-03-20T13:11:55;98947.77;;;18.22;45.02
78857;BME280;68207;50.078;19.936;2023-03-20T13:14:43;98944.61;;;17.93;45.69
78857;BME280;68207;50.078;19.936;2023-03-20T13:17:22;98938.55;;;17.92;46.09
78857;BME280;68207;50.078;19.936;2023-03-20T13:22:57;98944.75;;;17.81;46.09
78857;BME280;68207;50.078;19.936;2023-03-20T13:28:06;98931.59;;;17.45;46.86
78857;BME280;68207;50.078;19.936;2023-03-20T13:30:43;98931.75;;;17.41;47.22
78857;BME280;68207;50.078;19.936;2023-03-20T13:36:22;98931.45;;;17.61;47.34
78857;BME280;68207;50.078;19.936;2023-03-20T13:38:54;98933.08;;;17.65;47.31
78857;BME280;68207;50.078;19.936;2023-03-20T13:41:23;98932.52;;;17.56;47.49
78857;BME280;68207;50.078;19.936;2023-03-20T13:43:52;98927.86;;;17.47;47.67
78857;BME280;68207;50.078;19.936;2023-03-20T13:46:21;98928.14;;;17.49;47.79
78857;BME280;68207;50.078;19.936;2023-03-20T13:48:50;98925.66;;;17.50;48.00
78857;BME280;68207;50.078;19.936;2023-03-20T13:51:22;98927.35;;;17.32;48.42
78857;BME280;68207;50.078;19.936;2023-03-20T13:54:11;98928.46;;;17.13;48.76
78857;BME280;68207;50.078;19.936;2023-03-20T13:56:59;98923.06;;;17.03;48.98
78857;BME280;68207;50.078;19.936;2023-03-20T13:59:55;98920.98;;;17.01;49.12
78857;BME280;68207;50.078;19.936;2023-03-20T14:03:02;98921.10;;;17.00;49.03
78857;BME280;68207;50.078;19.936;2023-03-20T14:05:35;98921.79;;;16.97;49.17
78857;BME280;68207;50.078;19.936;2023-03-20T14:08:21;98920.92;;;16.94;49.20
78857;BME280;68207;50.078;19.936;2023-03-20T14:10:47;98922.40;;;16.90;48.96
78857;BME280;68207;50.078;19.936;2023-03-20T14:13:16;98927.23;;;16.86;49.04
78857;BME280;68207;50.078;19.936;2023-03-20T14:15:55;98928.36;;;16.79;49.03
78857;BME280;68207;50.078;19.936;2023-03-20T14:18:21;98928.04;;;16.69;49.15
78857;BME280;68207;50.078;19.936;2023-03-20T14:20:56;98925.69;;;16.59;49.26
78857;BME280;68207;50.078;19.936;2023-03-20T14:29:19;98930.95;;;16.37;49.88
78857;BME280;68207;50.078;19.936;2023-03-20T14:31:48;98932.70;;;16.31;50.03
78857;BME280;68207;50.078;19.936;2023-03-20T14:34:19;98935.10;;;16.25;50.25
78857;BME280;68207;50.078;19.936;2023-03-20T14:39:42;98932.11;;;16.14;50.38
78857;BME280;68207;50.078;19.936;2023-03-20T14:45:25;98930.81;;;15.95;50.59